createdAt,value
2023-01-20T00:00:54.326Z,72.60
2023-01-20T00:04:04.332Z,69.40
2023-01-20T00:07:10.320Z,67.87
2023-01-20T00:10:17.818Z,64.86
2023-01-20T00:13:23.923Z,64.06
2023-01-20T00:16:34.902Z,62.10
2023-01-20T00:19:43.600Z,60.69
2023-01-20T00:22:50.465Z,63.11
2023-01-20T00:25:56.496Z,63.41
2023-01-20T00:29:03.372Z,64.16
2023-01-20T00:32:09.441Z,67.53
2023-01-20T00:35:19.133Z,65.19
2023-01-20T00:38:25.097Z,66.20
2023-01-20T00:41:31.988Z,64.22
2023-01-20T00:44:37.993Z,63.48
2023-01-20T00:47:44.787Z,65.12
2023-01-20T00:50:53.428Z,65.07
2023-01-20T00:54:00.296Z,67.57
2023-01-20T00:57:06.803Z,73.65
2023-01-20T01:00:15.284Z,73.30
2023-01-20T01:03:21.566Z,74.76
2023-01-20T01:06:31.175Z,72.22
2023-01-20T01:09:37.582Z,100.65
2023-01-20T01:12:44.525Z,93.81
2023-01-20T01:15:53.831Z,90.11
2023-01-20T01:19:00.646Z,90.11
2023-01-20T01:22:09.335Z,100.24
2023-01-20T01:25:16.283Z,106.42
2023-01-20T01:28:22.317Z,130.75
2023-01-20T01:31:29.408Z,163.14
2023-01-20T01:34:35.618Z,158.25
2023-01-20T01:37:45.219Z,142.45
2023-01-20T01:40:53.822Z,166.64
2023-01-20T01:44:09.994Z,141.89
2023-01-20T01:47:16.127Z,137.36
2023-01-20T01:50:29.018Z,139.29
2023-01-20T01:53:47.140Z,132.46
2023-01-20T01:56:56.135Z,122.00
2023-01-20T02:00:02.397Z,114.23
2023-01-20T02:03:20.572Z,106.74
2023-01-20T02:06:34.891Z,110.87
2023-01-20T02:09:45.108Z,101.29
2023-01-20T02:12:53.744Z,101.07
2023-01-20T02:16:17.818Z,105.55
2023-01-20T02:20:14.053Z,109.02
2023-01-20T02:23:59.680Z,104.85
2023-01-20T02:27:20.050Z,104.42
2023-01-20T02:31:01.803Z,105.95
2023-01-20T02:34:20.034Z,116.17
2023-01-20T02:37:32.002Z,108.43
2023-01-20T02:40:56.604Z,101.33
2023-01-20T02:44:16.567Z,94.81
2023-01-20T02:47:36.122Z,93.55
2023-01-20T02:50:59.488Z,85.29
2023-01-20T02:54:14.378Z,83.82
2023-01-20T02:57:30.802Z,82.61
2023-01-20T03:00:47.939Z,84.35
2023-01-20T03:04:01.662Z,86.16
2023-01-20T03:07:17.050Z,85.48
2023-01-20T03:10:30.917Z,86.54
2023-01-20T03:13:49.028Z,88.22
2023-01-20T03:16:55.432Z,88.58
2023-01-20T03:20:03.531Z,86.92
2023-01-20T03:23:12.406Z,85.02
2023-01-20T03:26:22.864Z,83.45
2023-01-20T03:29:30.795Z,84.36
2023-01-20T03:32:37.728Z,84.56
2023-01-20T03:35:45.505Z,81.68
2023-01-20T03:38:57.846Z,82.24
2023-01-20T03:42:14.144Z,84.03
2023-01-20T03:45:35.983Z,86.35
2023-01-20T03:48:51.542Z,85.08
2023-01-20T03:52:14.885Z,82.23
2023-01-20T03:55:33.524Z,82.04
2023-01-20T03:58:47.629Z,85.61
2023-01-20T04:01:57.233Z,86.86
2023-01-20T04:05:08.646Z,87.17
2023-01-20T04:08:21.068Z,99.02
2023-01-20T04:11:30.628Z,97.57
2023-01-20T04:14:38.838Z,90.77
2023-01-20T04:17:46.174Z,89.58
2023-01-20T04:20:59.697Z,91.05
2023-01-20T04:24:14.633Z,97.55
2023-01-20T04:27:23.452Z,97.84
2023-01-20T04:30:30.434Z,95.85
2023-01-20T04:33:39.953Z,98.87
2023-01-20T04:36:46.806Z,103.14
2023-01-20T04:39:52.779Z,109.04
2023-01-20T04:43:02.381Z,127.55
2023-01-20T04:46:08.941Z,131.64
2023-01-20T04:49:15.895Z,126.26
2023-01-20T04:52:22.002Z,119.67
2023-01-20T04:55:29.398Z,108.05
2023-01-20T04:58:38.000Z,99.61
2023-01-20T05:01:44.897Z,103.16
2023-01-20T05:04:51.040Z,102.99
2023-01-20T05:07:59.909Z,105.82
2023-01-20T05:11:06.847Z,124.38
2023-01-20T05:14:17.422Z,144.25
2023-01-20T05:17:23.490Z,138.54
2023-01-20T05:20:30.492Z,131.39
2023-01-20T05:23:36.634Z,132.08
2023-01-20T05:26:43.531Z,135.29
2023-01-20T05:29:52.234Z,137.72
2023-01-20T05:32:59.343Z,178.95
2023-01-20T05:36:09.391Z,134.56
2023-01-20T05:39:16.289Z,128.92
2023-01-20T05:42:23.070Z,128.87
2023-01-20T05:45:33.244Z,140.85
2023-01-20T05:48:39.350Z,141.19
2023-01-20T05:51:46.368Z,142.56
2023-01-20T05:54:52.470Z,127.08
2023-01-20T05:57:59.372Z,98.10
2023-01-20T06:01:15.533Z,86.05
2023-01-20T06:04:22.443Z,75.38
2023-01-20T06:07:29.731Z,80.88
2023-01-20T06:10:36.667Z,86.92
2023-01-20T06:13:43.616Z,83.17
2023-01-20T06:16:53.554Z,81.96
2023-01-20T06:20:00.478Z,102.14
2023-01-20T06:23:07.733Z,128.20
2023-01-20T06:26:16.810Z,129.67
2023-01-20T06:29:24.234Z,122.27
2023-01-20T06:32:32.976Z,84.72
2023-01-20T06:35:40.296Z,79.20
2023-01-20T06:38:50.757Z,77.24
2023-01-20T06:42:02.033Z,79.64
2023-01-20T06:45:09.619Z,85.70
2023-01-20T06:48:19.358Z,84.73
2023-01-20T06:51:25.402Z,90.51
2023-01-20T06:54:32.281Z,87.30
2023-01-20T06:57:38.408Z,80.86
2023-01-20T07:00:45.279Z,79.63
2023-01-20T07:03:54.671Z,82.33
2023-01-20T07:07:01.558Z,79.38
2023-01-20T07:10:09.148Z,72.64
2023-01-20T07:13:16.075Z,72.73
2023-01-20T07:16:22.371Z,77.41
2023-01-20T07:19:31.889Z,79.92
2023-01-20T07:22:37.942Z,80.29
2023-01-20T07:25:44.835Z,74.43
2023-01-20T07:28:52.253Z,88.44
2023-01-20T07:31:59.651Z,80.12
2023-01-20T07:35:09.796Z,79.32
2023-01-20T07:38:16.728Z,80.84
2023-01-20T07:41:24.634Z,84.57
2023-01-20T07:44:31.596Z,86.47
2023-01-20T07:47:38.882Z,83.57
2023-01-20T07:50:48.490Z,87.66
2023-01-20T07:53:54.604Z,85.81
2023-01-20T07:57:01.528Z,87.29
2023-01-20T08:00:10.018Z,84.76
2023-01-20T08:03:17.054Z,80.70
2023-01-20T08:06:28.620Z,75.93
2023-01-20T08:09:35.495Z,80.04
2023-01-20T08:12:41.551Z,82.45
2023-01-20T08:15:48.402Z,76.65
2023-01-20T08:18:57.093Z,77.09
2023-01-20T08:22:06.627Z,75.16
2023-01-20T08:25:13.342Z,73.06
2023-01-20T08:28:20.460Z,69.22
2023-01-20T08:31:27.962Z,63.29
2023-01-20T08:34:34.865Z,61.99
2023-01-20T08:37:43.573Z,62.27
2023-01-20T08:40:50.480Z,60.58
2023-01-20T08:43:57.085Z,62.17
2023-01-20T08:47:03.947Z,58.37
2023-01-20T08:50:12.750Z,55.47
2023-01-20T08:53:22.568Z,56.95
2023-01-20T08:56:29.478Z,57.55
2023-01-20T08:59:36.354Z,60.36
2023-01-20T09:02:42.513Z,78.88
2023-01-20T09:05:50.095Z,81.16
2023-01-20T09:08:58.818Z,81.18
2023-01-20T09:12:06.991Z,81.88
2023-01-20T09:15:15.985Z,80.24
2023-01-20T09:18:23.095Z,84.89
2023-01-20T09:21:29.093Z,87.05
2023-01-20T09:24:38.717Z,72.54
2023-01-20T09:27:44.789Z,66.74
2023-01-20T09:30:51.763Z,63.36
2023-01-20T09:33:57.780Z,66.15
2023-01-20T09:37:18.400Z,70.53
2023-01-20T09:40:55.014Z,66.40
2023-01-20T09:44:22.311Z,60.18
2023-01-20T09:47:39.166Z,60.18
2023-01-20T09:51:11.763Z,62.31
2023-01-20T09:54:29.485Z,67.48
2023-01-20T09:57:51.932Z,76.31
2023-01-20T10:01:11.551Z,91.21
2023-01-20T10:04:30.024Z,88.58
2023-01-20T10:07:46.502Z,89.62
2023-01-20T10:11:02.483Z,89.84
2023-01-20T10:14:25.714Z,82.35
2023-01-20T10:17:43.076Z,86.71
2023-01-20T10:20:58.432Z,85.85
2023-01-20T10:24:16.269Z,89.98
2023-01-20T10:27:22.825Z,87.14
2023-01-20T10:30:39.650Z,92.43
2023-01-20T10:33:48.496Z,90.64
2023-01-20T10:37:09.311Z,80.85
2023-01-20T10:40:35.252Z,85.20
2023-01-20T10:43:42.387Z,85.17
2023-01-20T10:47:18.705Z,89.27
2023-01-20T10:50:58.556Z,92.19
2023-01-20T10:54:27.849Z,97.43
2023-01-20T10:57:38.458Z,96.85
2023-01-20T11:00:47.255Z,100.26
2023-01-20T11:03:56.908Z,92.77
2023-01-20T11:07:08.656Z,98.83
2023-01-20T11:10:20.715Z,91.83
2023-01-20T11:13:26.863Z,83.42
2023-01-20T11:16:34.410Z,83.90
2023-01-20T11:19:56.267Z,84.20
2023-01-20T11:23:03.622Z,83.25
2023-01-20T11:26:19.145Z,77.69
2023-01-20T11:29:34.099Z,79.25
2023-01-20T11:32:42.141Z,78.60
2023-01-20T11:36:05.978Z,80.42
2023-01-20T11:39:29.689Z,79.52
2023-01-20T11:42:48.779Z,78.12
2023-01-20T11:46:13.296Z,76.51
2023-01-20T11:49:24.754Z,74.78
2023-01-20T11:52:35.327Z,69.53
2023-01-20T11:55:53.501Z,70.92
2023-01-20T11:59:03.532Z,66.74
2023-01-20T12:02:27.885Z,63.98
2023-01-20T12:05:50.285Z,62.31
2023-01-20T12:09:07.946Z,64.92
2023-01-20T12:12:32.304Z,61.24
2023-01-20T12:15:53.115Z,54.91
2023-01-20T12:19:07.980Z,54.21
2023-01-20T12:22:26.608Z,50.79
2023-01-20T12:25:46.063Z,52.87
2023-01-20T12:29:05.170Z,59.22
2023-01-20T12:32:12.347Z,47.68
2023-01-20T12:35:19.981Z,43.22
2023-01-20T12:38:28.107Z,41.98
2023-01-20T12:42:30.227Z,42.75
2023-01-20T12:46:02.829Z,44.30
2023-01-20T12:49:49.103Z,43.86
2023-01-20T12:53:41.694Z,40.77
2023-01-20T12:57:06.336Z,40.09
2023-01-20T13:00:42.456Z,39.61
2023-01-20T13:04:46.012Z,41.90
2023-01-20T13:08:13.632Z,47.02
2023-01-20T13:11:45.558Z,44.28
2023-01-20T13:15:05.897Z,42.51
2023-01-20T13:18:44.496Z,46.31
2023-01-20T13:22:07.424Z,45.60
2023-01-20T13:25:19.658Z,43.19
2023-01-20T13:28:30.332Z,45.21
2023-01-20T13:31:49.772Z,43.71
2023-01-20T13:34:56.118Z,45.74
2023-01-20T13:38:06.386Z,45.51
2023-01-20T13:41:14.188Z,50.69
2023-01-20T13:44:39.620Z,49.26
2023-01-20T13:48:20.888Z,46.61
2023-01-20T13:51:49.223Z,47.56
2023-01-20T13:54:57.239Z,50.14
2023-01-20T13:58:03.992Z,53.46
2023-01-20T14:01:15.916Z,49.71
2023-01-20T14:04:25.376Z,49.55
2023-01-20T14:07:33.899Z,55.33
2023-01-20T14:10:40.798Z,55.17
2023-01-20T14:13:58.070Z,52.84
2023-01-20T14:17:06.650Z,55.03
2023-01-20T14:20:25.936Z,55.64
2023-01-20T14:23:39.710Z,54.70
2023-01-20T14:26:45.801Z,54.35
2023-01-20T14:29:56.406Z,56.60
2023-01-20T14:33:02.474Z,57.81
2023-01-20T14:36:19.596Z,57.58
2023-01-20T14:39:30.399Z,59.03
2023-01-20T14:42:38.848Z,59.42
2023-01-20T14:45:51.803Z,62.74
2023-01-20T14:49:01.086Z,63.84
2023-01-20T14:52:12.355Z,63.80
2023-01-20T14:55:35.804Z,63.21
2023-01-20T14:58:49.063Z,61.57
2023-01-20T15:02:05.857Z,62.31
2023-01-20T15:05:31.242Z,60.59
2023-01-20T15:09:05.746Z,64.08
2023-01-20T15:12:57.398Z,60.83
2023-01-20T15:16:20.293Z,59.58
2023-01-20T15:19:48.576Z,54.94
2023-01-20T15:22:55.988Z,57.31
2023-01-20T15:26:27.119Z,56.66
2023-01-20T15:29:37.851Z,57.64
2023-01-20T15:32:44.022Z,55.77
2023-01-20T15:35:57.505Z,53.75
2023-01-20T15:39:03.585Z,50.95
2023-01-20T15:42:16.187Z,50.64
2023-01-20T15:45:22.764Z,50.06
2023-01-20T15:48:29.699Z,49.61
2023-01-20T15:51:35.715Z,49.67
2023-01-20T15:54:42.597Z,51.00
2023-01-20T15:57:55.407Z,50.67
2023-01-20T16:01:03.770Z,47.17
2023-01-20T16:04:10.205Z,47.36
2023-01-20T16:07:20.404Z,48.55
2023-01-20T16:10:26.611Z,50.86
2023-01-20T16:13:36.220Z,49.88
2023-01-20T16:16:42.263Z,46.74
2023-01-20T16:19:49.447Z,48.46
2023-01-20T16:22:57.028Z,48.17
2023-01-20T16:26:03.997Z,50.21
2023-01-20T16:29:13.203Z,49.65
2023-01-20T16:32:22.518Z,52.73
2023-01-20T16:35:29.136Z,52.48
2023-01-20T16:38:35.982Z,51.76
2023-01-20T16:41:42.140Z,50.47
2023-01-20T16:44:51.659Z,51.70
2023-01-20T16:47:58.680Z,51.17
2023-01-20T16:51:06.708Z,51.89
2023-01-20T16:54:13.349Z,53.11
2023-01-20T16:57:20.204Z,51.76
2023-01-20T17:00:29.365Z,51.70
2023-01-20T17:03:36.190Z,53.75
2023-01-20T17:06:43.398Z,54.19
2023-01-20T17:09:50.209Z,52.07
2023-01-20T17:12:59.298Z,51.57
2023-01-20T17:16:09.840Z,51.82
2023-01-20T17:19:17.699Z,50.26
2023-01-20T17:22:24.634Z,52.47
2023-01-20T17:25:31.152Z,52.24
2023-01-20T17:28:38.543Z,52.43
2023-01-20T17:31:47.308Z,50.83
2023-01-20T17:34:54.155Z,48.92
2023-01-20T17:38:01.228Z,50.36
2023-01-20T17:41:10.710Z,50.96
2023-01-20T17:44:17.110Z,52.69
2023-01-20T17:47:26.679Z,53.01
2023-01-20T17:50:32.817Z,55.53
2023-01-20T17:53:39.783Z,54.99
2023-01-20T17:56:47.924Z,57.43
2023-01-20T17:59:54.811Z,56.68
2023-01-20T18:03:03.554Z,56.75
2023-01-20T18:06:11.818Z,58.51
2023-01-20T18:09:19.084Z,54.96
2023-01-20T18:12:26.410Z,52.93
2023-01-20T18:15:32.687Z,51.22
2023-01-20T18:18:43.460Z,52.38
2023-01-20T18:21:49.544Z,51.34
2023-01-20T18:24:57.289Z,50.46
2023-01-20T18:28:03.338Z,48.10
2023-01-20T18:31:15.111Z,49.87
2023-01-20T18:34:23.915Z,50.13
2023-01-20T18:37:30.939Z,51.51
2023-01-20T18:40:37.118Z,50.91
2023-01-20T18:43:44.759Z,54.86
2023-01-20T18:46:50.796Z,55.39
2023-01-20T18:50:00.356Z,56.38
2023-01-20T18:53:06.390Z,54.93
2023-01-20T18:56:16.555Z,60.91
2023-01-20T18:59:22.623Z,59.87
2023-01-20T19:02:29.827Z,58.66
2023-01-20T19:05:38.714Z,54.54
2023-01-20T19:08:48.421Z,53.91
2023-01-20T19:11:55.066Z,54.94
2023-01-20T19:15:01.962Z,54.01
2023-01-20T19:18:08.516Z,51.04
2023-01-20T19:21:19.026Z,51.11
2023-01-20T19:24:29.122Z,49.75
2023-01-20T19:27:36.152Z,48.83
2023-01-20T19:30:42.312Z,50.17
2023-01-20T19:33:50.271Z,51.28
2023-01-20T19:37:00.740Z,52.34
2023-01-20T19:40:09.684Z,50.28
2023-01-20T19:43:15.776Z,48.64
2023-01-20T19:46:24.615Z,49.81
2023-01-20T19:49:30.752Z,49.91
2023-01-20T19:52:40.445Z,49.06
2023-01-20T19:55:47.630Z,48.88
2023-01-20T19:58:57.444Z,47.44
2023-01-20T20:02:03.613Z,46.67
2023-01-20T20:05:12.569Z,45.96
2023-01-20T20:08:21.392Z,45.97
2023-01-20T20:11:29.144Z,44.41
2023-01-20T20:14:36.894Z,44.58
2023-01-20T20:17:43.883Z,42.72
2023-01-20T20:20:49.992Z,42.64
2023-01-20T20:24:03.334Z,42.44
2023-01-20T20:27:09.613Z,41.08
2023-01-20T20:30:17.922Z,39.82
2023-01-20T20:33:24.438Z,40.35
2023-01-20T20:36:33.831Z,40.96
2023-01-20T20:39:42.521Z,42.07
2023-01-20T20:42:49.460Z,41.84
2023-01-20T20:45:56.202Z,40.28
2023-01-20T20:49:04.917Z,38.76
2023-01-20T20:52:11.227Z,38.55
2023-01-20T20:55:21.208Z,38.91
2023-01-20T20:58:27.705Z,39.08
2023-01-20T21:01:37.331Z,37.90
2023-01-20T21:04:44.100Z,38.31
2023-01-20T21:07:51.589Z,38.21
2023-01-20T21:11:03.766Z,40.22
2023-01-20T21:14:11.056Z,38.75
2023-01-20T21:17:17.096Z,40.73
2023-01-20T21:20:24.481Z,41.39
2023-01-20T21:23:33.092Z,38.94
2023-01-20T21:26:43.756Z,40.85
2023-01-20T21:29:49.869Z,40.93
2023-01-20T21:32:56.994Z,40.40
2023-01-20T21:36:04.826Z,46.01
2023-01-20T21:39:16.174Z,39.49
2023-01-20T21:42:25.445Z,37.78
2023-01-20T21:45:32.612Z,37.94
2023-01-20T21:48:51.071Z,38.48
2023-01-20T21:52:11.072Z,37.94
2023-01-20T21:55:21.845Z,36.01
2023-01-20T21:58:31.392Z,36.21
2023-01-20T22:01:38.853Z,35.47
2023-01-20T22:04:46.384Z,37.27
2023-01-20T22:07:52.499Z,36.33
2023-01-20T22:10:59.910Z,35.70
2023-01-20T22:14:08.729Z,36.23
2023-01-20T22:17:16.026Z,35.23
2023-01-20T22:20:23.115Z,35.90
2023-01-20T22:23:30.096Z,36.76
2023-01-20T22:26:36.383Z,35.88
2023-01-20T22:29:46.031Z,34.32
2023-01-20T22:32:52.184Z,34.09
2023-01-20T22:35:59.125Z,34.20
2023-01-20T22:39:08.239Z,34.01
2023-01-20T22:42:15.132Z,32.44
2023-01-20T22:45:23.801Z,32.26
2023-01-20T22:48:34.772Z,33.63
2023-01-20T22:51:40.841Z,33.04
2023-01-20T22:54:47.743Z,32.82
2023-01-20T22:57:54.156Z,32.36
2023-01-20T23:01:04.692Z,32.02
2023-01-20T23:04:10.998Z,31.75
2023-01-20T23:07:17.996Z,31.68
2023-01-20T23:10:36.241Z,30.06
2023-01-20T23:13:45.747Z,30.19
2023-01-20T23:16:54.505Z,29.15
2023-01-20T23:20:01.645Z,31.40
2023-01-20T23:23:08.862Z,31.20
2023-01-20T23:26:19.735Z,29.84
2023-01-20T23:29:26.052Z,30.33
2023-01-20T23:32:35.620Z,30.11
2023-01-20T23:35:41.820Z,28.51
2023-01-20T23:38:49.294Z,29.41
2023-01-20T23:41:55.424Z,29.10
2023-01-20T23:45:02.368Z,27.43
2023-01-20T23:48:11.150Z,26.38
2023-01-20T23:51:18.873Z,26.86
2023-01-20T23:54:25.240Z,28.72
2023-01-20T23:57:32.150Z,30.12
